Time;durP1;ratioP1;P1;durP2;ratioP2;P2;SDS_P1;SDS_P2;PMS_P1;PMS_P2;Temp;Humidity;BMP_temperature;BMP_pressure;BME280_temperature;BME280_humidity;BME280_pressure;Samples;Min_cycle;Max_cycle;Signal;HPM_P1;HPM_P2
2024/04/22 00:02:01;;;;;;;1.27;0.90;;;;;;;9.80;71.30;98929.22;5062269;28;20013;-93
2024/04/22 00:04:28;;;;;;;0.85;0.82;;;;;;;9.83;73.41;98931.34;5063788;28;19994;-95
2024/04/22 00:06:53;;;;;;;1.25;0.77;;;;;;;9.86;71.03;98946.94;5064316;28;20006;-93
2024/04/22 00:09:19;;;;;;;0.60;0.60;;;;;;;9.83;72.18;98950.97;5064213;28;19995;-95
2024/04/22 00:11:45;;;;;;;0.82;0.75;;;;;;;9.68;71.24;98943.75;5090992;28;20006;-95
2024/04/22 00:14:13;;;;;;;1.35;0.90;;;;;;;9.79;72.95;98952.59;5063839;28;20017;-94
2024/04/22 00:16:41;;;;;;;1.55;0.80;;;;;;;9.77;72.82;98938.59;5064180;28;20007;-93
2024/04/22 00:19:07;;;;;;;0.90;0.80;;;;;;;9.68;72.81;98961.75;5063929;28;20431;-94
2024/04/22 00:21:33;;;;;;;0.90;0.80;;;;;;;9.77;73.38;98968.19;5062843;28;20108;-93
2024/04/22 00:23:59;;;;;;;0.90;0.80;;;;;;;9.72;74.97;98962.84;5063756;28;20017;-93
2024/04/22 00:26:24;;;;;;;1.20;0.73;;;;;;;9.70;75.05;98959.63;5064452;28;20002;-93
2024/04/22 00:28:50;;;;;;;0.98;0.80;;;;;;;9.59;75.89;98950.78;5062635;28;20006;-93
2024/04/22 00:31:16;;;;;;;1.85;1.00;;;;;;;9.70;76.12;98971.16;5064672;28;20002;-94
2024/04/22 00:33:42;;;;;;;1.33;1.10;;;;;;;9.77;73.97;98968.19;5064863;28;20014;-94
2024/04/22 00:36:08;;;;;;;1.25;0.93;;;;;;;9.85;75.51;98991.03;5088984;28;20312;-92
2024/04/22 00:38:33;;;;;;;1.55;0.80;;;;;;;9.65;75.69;98965.81;5061776;28;20013;-93
2024/04/22 00:40:59;;;;;;;1.15;0.90;;;;;;;9.73;70.96;98979.75;5062030;28;20002;-94
2024/04/22 00:43:25;;;;;;;1.10;0.70;;;;;;;9.81;72.06;98998.03;5063646;28;20035;-94
2024/04/22 00:45:51;;;;;;;0.60;0.60;;;;;;;9.68;73.45;98980.59;5089541;28;19998;-94
2024/04/22 00:48:18;;;;;;;1.65;0.90;;;;;;;9.51;73.03;98980.88;5064241;28;20015;-93
2024/04/22 00:50:44;;;;;;;0.80;0.80;;;;;;;9.62;73.69;99001.28;5061685;28;20014;-94
2024/04/22 00:53:10;;;;;;;1.45;0.70;;;;;;;9.52;72.26;98995.91;5062703;28;20437;-94
2024/04/22 00:55:35;;;;;;;0.90;0.68;;;;;;;9.51;73.99;98997.81;5043897;28;20068;-93
2024/04/22 00:58:02;;;;;;;0.90;0.75;;;;;;;9.66;73.33;99025.75;5056974;28;20006;-93
2024/04/22 01:00:28;;;;;;;0.90;0.57;;;;;;;9.57;73.42;99006.69;5094681;28;19998;-94
2024/04/22 01:02:54;;;;;;;0.93;0.70;;;;;;;9.50;74.15;99024.94;5069114;28;20006;-93
2024/04/22 01:05:19;;;;;;;0.65;0.60;;;;;;;9.61;72.31;99031.16;5068778;28;20001;-94
2024/04/22 01:07:45;;;;;;;1.17;0.90;;;;;;;9.67;73.24;99052.38;5068502;28;19998;-92
2024/04/22 01:10:10;;;;;;;0.90;0.77;;;;;;;9.65;72.18;99048.31;5068969;28;19998;-94
2024/04/22 01:12:36;;;;;;;0.73;0.73;;;;;;;9.54;70.54;99041.34;5070384;28;20046;-94
2024/04/22 01:15:03;;;;;;;1.10;0.80;;;;;;;9.41;72.20;99046.19;5069152;28;20002;-94
2024/04/22 01:17:43;;;;;;;0.75;0.70;;;;;;;9.66;70.21;99064.19;5067230;28;20001;-94
2024/04/22 01:20:09;;;;;;;1.08;0.80;;;;;;;9.45;70.55;99049.94;5094442;28;20005;-94
2024/04/22 01:22:35;;;;;;;0.75;0.70;;;;;;;9.39;70.51;99037.59;5094038;28;20005;-95
2024/04/22 01:25:02;;;;;;;1.10;0.90;;;;;;;9.48;70.23;99048.59;5068003;28;20063;-95
2024/04/22 01:27:27;;;;;;;1.10;0.70;;;;;;;9.62;69.42;99059.63;5068618;28;20002;-93
2024/04/22 01:29:53;;;;;;;1.00;0.88;;;;;;;9.35;70.46;99051.84;5067567;28;20008;-93
2024/04/22 01:32:19;;;;;;;0.93;0.85;;;;;;;9.37;70.47;99060.44;5068633;28;20013;-94
2024/04/22 01:34:44;;;;;;;1.20;1.10;;;;;;;9.44;70.69;99056.41;5068390;28;19998;-93
2024/04/22 01:37:10;;;;;;;1.77;1.10;;;;;;;9.39;71.48;99066.34;5067722;28;20002;-94
2024/04/22 01:39:36;;;;;;;1.33;1.00;;;;;;;9.28;71.53;99060.16;5067540;28;20366;-94
2024/04/22 01:42:02;;;;;;;1.60;1.00;;;;;;;9.24;69.37;99033.03;5068564;28;20027;-94
2024/04/22 01:44:28;;;;;;;1.38;1.02;;;;;;;9.34;68.50;99040.28;5094345;28;20008;-95
2024/04/22 01:46:54;;;;;;;1.30;0.98;;;;;;;9.37;67.51;99052.38;5067067;27;20002;-94
2024/04/22 01:49:20;;;;;;;0.80;0.80;;;;;;;9.19;68.61;99046.44;5067570;28;19997;-93
2024/04/22 01:51:47;;;;;;;1.13;0.90;;;;;;;9.28;68.06;99074.41;5094156;28;20009;-92
2024/04/22 01:54:16;;;;;;;1.17;0.88;;;;;;;9.37;67.58;99076.56;5068969;28;20078;-94
2024/04/22 01:56:41;;;;;;;1.15;0.90;;;;;;;9.24;67.37;99065.25;5067972;28;20001;-94
2024/04/22 01:59:07;;;;;;;1.13;1.00;;;;;;;9.32;68.65;99077.38;5067144;28;19997;-93
2024/04/22 02:01:33;;;;;;;1.15;0.93;;;;;;;9.14;68.20;99073.31;5067653;28;20029;-94
2024/04/22 02:04:01;;;;;;;1.80;1.10;;;;;;;9.00;70.59;99051.50;5066579;28;19994;-94
2024/04/22 02:06:29;;;;;;;2.30;1.00;;;;;;;9.19;68.95;99077.88;5069142;28;20054;-93
2024/04/22 02:08:55;;;;;;;2.60;1.20;;;;;;;8.97;71.90;99070.84;5068058;28;20002;-93
2024/04/22 02:11:21;;;;;;;2.20;1.40;;;;;;;8.92;71.18;99067.34;5069610;28;20009;-94
2024/04/22 02:13:46;;;;;;;1.77;1.40;;;;;;;9.09;70.36;99082.16;5065928;28;20002;-94
2024/04/22 02:16:12;;;;;;;3.20;1.10;;;;;;;8.94;69.51;99066.00;5094289;28;20074;-94
2024/04/22 02:18:38;;;;;;;1.33;1.10;;;;;;;9.08;69.22;99074.34;5067260;28;20013;-94
2024/04/22 02:21:04;;;;;;;1.23;1.08;;;;;;;9.00;69.17;99064.94;5094457;28;19998;-94
2024/04/22 02:23:30;;;;;;;1.70;1.20;;;;;;;9.05;68.97;99091.03;5069005;27;20002;-94
2024/04/22 02:25:59;;;;;;;1.40;1.10;;;;;;;9.08;69.44;99096.66;5067006;28;20043;-95
2024/04/22 02:28:25;;;;;;;1.20;1.10;;;;;;;8.99;71.31;99105.50;5094931;28;20002;-94
2024/04/22 02:30:50;;;;;;;1.45;1.20;;;;;;;8.92;70.53;99104.94;5069882;28;20013;-95
2024/04/22 02:33:17;;;;;;;1.17;1.08;;;;;;;9.02;69.94;99116.50;5067231;28;20002;-95
2024/04/22 02:35:43;;;;;;;1.40;1.27;;;;;;;9.08;69.80;99138.81;5093687;28;19998;-93
2024/04/22 02:38:08;;;;;;;1.27;1.17;;;;;;;8.98;69.23;99114.63;5069192;28;20078;-95
2024/04/22 02:40:34;;;;;;;1.52;1.10;;;;;;;9.01;69.30;99120.28;5067502;28;19997;-94
2024/04/22 02:43:00;;;;;;;1.58;1.10;;;;;;;9.16;68.66;99126.75;5068006;28;20026;-94
2024/04/22 02:45:26;;;;;;;1.48;1.10;;;;;;;9.03;69.91;99117.34;5068258;28;20092;-93
2024/04/22 02:47:54;;;;;;;2.38;1.38;;;;;;;9.04;71.17;99135.84;5100804;28;20021;-96
2024/04/22 02:50:20;;;;;;;2.33;1.60;;;;;;;9.01;70.82;99131.00;5096287;28;20038;-92
2024/04/22 02:52:46;;;;;;;1.50;1.40;;;;;;;9.06;69.65;99143.66;5092083;28;20002;-94
2024/04/22 02:55:12;;;;;;;1.92;1.42;;;;;;;9.23;68.58;99154.97;5065684;28;19998;-94
2024/04/22 02:57:37;;;;;;;7.05;1.40;;;;;;;9.12;69.40;99160.59;5066380;28;20074;-93
2024/04/22 03:00:04;;;;;;;1.60;1.20;;;;;;;9.01;68.78;99151.69;5066252;28;20002;-94
2024/04/22 03:02:30;;;;;;;2.15;1.30;;;;;;;9.07;68.83;99161.38;5093361;28;20054;-94
2024/04/22 03:04:56;;;;;;;1.45;1.33;;;;;;;8.93;69.99;99149.53;5066436;28;20055;-94
2024/04/22 03:07:21;;;;;;;1.40;1.30;;;;;;;8.98;70.20;99150.31;5067387;28;19997;-95
2024/04/22 03:09:47;;;;;;;1.50;1.20;;;;;;;9.23;69.47;99181.03;5069056;28;20074;-94
2024/04/22 03:12:13;;;;;;;1.50;1.30;;;;;;;9.35;69.28;99194.25;5068795;28;20002;-94
2024/04/22 03:14:39;;;;;;;1.45;1.20;;;;;;;9.33;68.67;99183.75;5068244;28;20002;-93
2024/04/22 03:17:05;;;;;;;1.60;1.27;;;;;;;9.16;68.29;99172.41;5093857;28;20006;-94
2024/04/22 03:19:30;;;;;;;1.50;1.20;;;;;;;9.26;67.71;99183.19;5067116;28;20347;-94
2024/04/22 03:21:56;;;;;;;1.70;1.48;;;;;;;9.48;67.50;99217.91;5067257;28;20009;-95
2024/04/22 03:24:22;;;;;;;2.22;1.23;;;;;;;9.37;68.14;99214.38;5065250;28;20051;-95
2024/04/22 03:26:50;;;;;;;1.70;1.40;;;;;;;9.28;67.86;99213.31;5092819;28;20108;-95
2024/04/22 03:29:16;;;;;;;3.00;1.20;;;;;;;9.24;67.63;99193.41;5093957;28;20012;-94
2024/04/22 03:31:44;;;;;;;2.28;1.20;;;;;;;9.44;68.39;99225.72;5068281;28;20006;-94
2024/04/22 03:34:11;;;;;;;1.98;1.30;;;;;;;9.38;67.09;99225.94;5094800;28;20009;-92
2024/04/22 03:36:37;;;;;;;1.83;1.40;;;;;;;9.19;68.06;99199.53;5092791;28;20008;-94
2024/04/22 03:39:03;;;;;;;1.35;1.10;;;;;;;9.34;67.22;99220.31;5067109;28;20013;-94
2024/04/22 03:41:28;;;;;;;2.67;1.50;;;;;;;9.32;67.07;99222.44;5068284;28;20034;-92
2024/04/22 03:43:55;;;;;;;1.67;1.30;;;;;;;9.32;66.75;99217.06;5067408;28;20351;-92
2024/04/22 03:49:54;;;;;;;2.38;1.45;;;;;;;9.30;66.01;99203.09;5122155;28;20070;-94
2024/04/22 03:52:19;;;;;;;1.90;1.40;;;;;;;9.41;66.21;99228.13;5072581;28;20017;-93
2024/04/22 03:54:45;;;;;;;2.30;1.40;;;;;;;9.43;67.36;99226.78;5091771;28;19998;-94
2024/04/22 03:57:11;;;;;;;1.70;1.27;;;;;;;9.38;66.32;99226.78;5093423;28;20016;-94
2024/04/22 03:59:42;;;;;;;6.28;1.40;;;;;;;9.50;66.00;99239.94;5067060;28;20020;-92
2024/04/22 04:02:08;;;;;;;2.40;1.33;;;;;;;9.40;66.83;99239.91;5066043;28;20421;-92
2024/04/22 04:04:36;;;;;;;3.53;1.52;;;;;;;9.49;66.55;99238.34;5067795;28;20081;-93
2024/04/22 04:07:02;;;;;;;1.80;1.42;;;;;;;9.47;65.73;99241.28;5067689;28;20024;-92
2024/04/22 04:09:39;;;;;;;1.88;1.58;;;;;;;9.41;66.57;99236.97;5067235;28;20002;-93
2024/04/22 04:12:05;;;;;;;1.95;1.20;;;;;;;9.40;66.04;99239.91;5067164;28;20002;-96
2024/04/22 04:14:31;;;;;;;2.33;1.73;;;;;;;9.30;65.87;99229.97;5066186;28;20476;-93
2024/04/22 04:16:56;;;;;;;6.20;1.83;;;;;;;9.30;67.13;99248.78;5071086;28;20004;-94
2024/04/22 04:19:25;;;;;;;5.10;2.00;;;;;;;9.16;68.32;99224.25;5066038;28;20006;-95
2024/04/22 04:21:51;;;;;;;2.72;2.10;;;;;;;9.38;68.50;99269.75;5066799;28;20037;-92
2024/04/22 04:24:18;;;;;;;4.75;2.40;;;;;;;9.36;68.71;99265.69;5069828;28;20002;-93
2024/04/22 04:26:44;;;;;;;2.22;1.73;;;;;;;9.30;67.01;99254.16;5067296;28;20009;-94
2024/04/22 04:29:54;;;;;;;10.45;9.23;;;;;;;9.55;67.39;99277.63;5097022;27;20448;-93
2024/04/22 04:32:20;;;;;;;3.13;2.45;;;;;;;9.46;67.78;99253.13;5081662;28;20006;-93
2024/04/22 04:34:45;;;;;;;7.20;4.45;;;;;;;9.69;66.46;99277.91;5086224;27;20006;-92
2024/04/22 04:37:11;;;;;;;2.88;2.08;;;;;;;9.71;66.09;99273.06;5068846;28;20006;-92
2024/04/22 04:39:37;;;;;;;4.88;2.58;;;;;;;9.84;66.09;99283.34;5067804;28;20021;-93
2024/04/22 04:42:03;;;;;;;4.47;2.65;;;;;;;9.88;64.95;99289.81;5068558;28;20004;-93
2024/04/22 04:44:37;;;;;;;7.95;2.20;;;;;;;9.89;65.39;99280.66;5044012;28;19990;-94
2024/04/22 04:47:04;;;;;;;4.75;2.05;;;;;;;9.87;66.25;99274.72;5042829;28;20014;-93
2024/04/22 04:49:30;;;;;;;3.63;2.20;;;;;;;10.08;64.12;99293.59;5043528;28;20006;-92
2024/04/22 04:52:25;;;;;;;5.13;3.10;;;;;;;9.89;66.55;99287.91;5095584;28;20020;-94
2024/04/22 05:05:23;;;;;;;2.85;1.70;;;;;;;10.33;62.52;99317.06;5128586;27;20017;-96
2024/04/22 05:07:50;;;;;;;2.42;1.65;;;;;;;10.16;63.73;99293.06;5076314;28;20006;-94
2024/04/22 05:10:23;;;;;;;2.97;2.40;;;;;;;10.26;63.84;99300.34;5065429;28;20006;-96
2024/04/22 05:12:49;;;;;;;3.65;2.17;;;;;;;10.35;64.22;99300.66;5102344;27;20030;-96
2024/04/22 05:15:21;;;;;;;2.88;2.10;;;;;;;10.43;61.77;99294.72;5074000;28;20006;-96
2024/04/22 05:17:50;;;;;;;3.85;1.80;;;;;;;10.46;60.99;99303.06;5078264;28;20001;-94
2024/04/22 05:20:22;;;;;;;2.38;1.70;;;;;;;10.54;60.56;99307.09;5101871;27;20002;-96
2024/04/22 05:22:48;;;;;;;5.00;2.20;;;;;;;10.62;60.89;99303.06;5075782;28;20045;-96
2024/04/22 05:25:13;;;;;;;3.65;2.33;;;;;;;10.69;62.48;99323.25;5072434;28;20234;-94
2024/04/22 05:27:41;;;;;;;8.85;2.13;;;;;;;10.68;62.10;99328.91;5073007;28;20002;-96
2024/04/22 05:30:07;;;;;;;2.28;1.60;;;;;;;10.75;60.08;99315.16;5070713;28;20012;-95
2024/04/22 05:32:33;;;;;;;4.40;2.00;;;;;;;10.68;61.07;99318.13;5068170;28;20002;-91
2024/04/22 05:37:53;;;;;;;2.58;1.60;;;;;;;10.97;59.00;99339.13;5074251;28;20020;-91
2024/04/22 05:40:18;;;;;;;4.85;2.00;;;;;;;11.03;60.95;99332.66;5043573;28;20041;-89
2024/04/22 05:43:12;;;;;;;;;;;;;;;;;;;;;
2024/04/22 05:52:23;;;;;;;2.30;1.77;;;;;;;11.06;59.34;99354.47;5042095;28;20011;-95
2024/04/22 05:54:58;;;;;;;2.50;1.80;;;;;;;10.92;58.85;99326.47;5070499;27;20002;-95
2024/04/22 06:07:57;;;;;;;2.88;2.17;;;;;;;11.22;57.51;99376.00;5021171;28;20384;-92
2024/04/22 06:10:22;;;;;;;4.90;1.83;;;;;;;11.27;57.93;99341.75;5012822;28;20016;-94
2024/04/22 06:12:54;;;;;;;4.65;2.05;;;;;;;11.47;55.81;99356.25;5036976;28;20007;-93
2024/04/22 06:15:21;;;;;;;2.15;1.73;;;;;;;11.60;57.18;99361.06;5079856;27;19995;-95
2024/04/22 06:18:09;;;;;;;3.30;2.13;;;;;;;11.80;56.44;99370.97;5104131;27;19997;-93
2024/04/22 06:20:35;;;;;;;2.60;1.60;;;;;;;12.01;54.91;99382.50;5105768;27;20056;-92
2024/04/22 06:23:04;;;;;;;1.85;1.48;;;;;;;11.95;54.73;99350.41;5072998;27;20021;-93
2024/04/22 06:25:33;;;;;;;1.77;1.48;;;;;;;12.24;54.79;99361.31;5075424;27;20009;-94
2024/04/22 06:27:59;;;;;;;4.97;1.70;;;;;;;12.54;54.40;99374.63;5099010;27;20001;-93
2024/04/22 06:30:42;;;;;;;1.80;1.48;;;;;;;12.68;54.26;99374.00;5045873;28;20018;-91
2024/04/22 06:33:16;;;;;;;2.40;1.40;;;;;;;12.91;52.25;99389.47;5105014;27;20001;-92
2024/04/22 06:35:42;;;;;;;1.80;1.45;;;;;;;13.02;52.68;99390.19;5059104;27;20350;-93
2024/04/22 06:38:11;;;;;;;7.38;2.30;;;;;;;13.03;53.02;99377.47;5087616;27;20354;-95
2024/04/22 06:40:41;;;;;;;1.75;1.48;;;;;;;13.19;51.91;99389.75;5046156;28;20006;-92
2024/04/22 06:43:17;;;;;;;3.35;1.33;;;;;;;13.27;50.53;99372.91;5047733;28;20006;-95
2024/04/22 06:46:04;;;;;;;;;;;;;;;;;;;;;
2024/04/22 06:51:46;;;;;;;1.67;1.40;;;;;;;13.44;50.34;99393.31;4968453;28;20043;-93
2024/04/22 06:54:15;;;;;;;2.90;1.75;;;;;;;13.47;51.23;99407.09;4976203;28;20004;-96
2024/04/22 07:00:08;;;;;;;1.40;1.20;;;;;;;13.41;48.69;99383.09;5325313;22;20036;-96
2024/04/22 07:06:23;;;;;;;1.30;1.20;;;;;;;13.19;49.76;99388.94;5018255;28;20077;-96
2024/04/22 07:11:30;;;;;;;;;;;;;;;;;;;;;
2024/04/22 07:16:53;;;;;;;3.83;1.33;;;;;;;14.01;48.21;99399.69;5064545;28;20078;-96
2024/04/22 07:19:36;;;;;;;1.73;1.33;;;;;;;13.70;47.60;99396.56;5043359;28;20018;-95
2024/04/22 07:22:11;;;;;;;3.22;1.35;;;;;;;13.80;47.82;99407.25;5089756;27;20041;-95
2024/04/22 07:24:40;;;;;;;3.28;1.40;;;;;;;13.79;48.37;99413.75;5075736;27;20397;-96
2024/04/22 07:27:22;;;;;;;;;;;;;;;;;;;;;
2024/04/22 07:29:54;;;;;;;1.63;1.23;;;;;;;13.67;49.39;99429.59;5107817;27;20040;-95
2024/04/22 07:32:26;;;;;;;1.70;1.25;;;;;;;13.61;47.89;99425.31;5101809;27;20016;-94
2024/04/22 07:35:38;;;;;;;2.10;1.40;;;;;;;13.78;48.58;99463.59;5073335;27;20005;-94
2024/04/22 07:38:08;;;;;;;2.22;1.33;;;;;;;13.58;47.78;99428.63;5063646;27;19997;-94
2024/04/22 07:41:07;;;;;;;2.22;1.48;;;;;;;13.91;48.28;99460.16;5074524;27;19997;-93
2024/04/22 07:43:36;;;;;;;7.40;2.58;;;;;;;13.83;47.53;99433.75;5101692;27;20021;-94
2024/04/22 07:46:14;;;;;;;2.35;2.00;;;;;;;13.74;48.47;99446.31;5076138;27;20068;-94
2024/04/22 07:48:42;;;;;;;1.95;1.38;;;;;;;13.82;47.02;99472.75;5081237;27;20009;-96
2024/04/22 07:51:20;;;;;;;;;;;;;;;;;;;;;
2024/04/22 07:54:18;;;;;;;4.25;3.03;;;;;;;13.79;47.62;99478.72;5105301;27;19997;-95
2024/04/22 07:56:59;;;;;;;2.33;1.48;;;;;;;13.63;47.69;99458.31;5099383;27;20032;-94
2024/04/22 07:59:32;;;;;;;3.47;1.90;;;;;;;13.69;47.87;99468.00;5079727;27;20005;-96
2024/04/22 08:02:48;;;;;;;2.10;1.52;;;;;;;14.03;47.98;99488.72;5041359;28;20014;-96
2024/04/22 08:05:45;;;;;;;2.28;1.25;;;;;;;14.10;46.47;99490.00;5185878;22;20010;-96
2024/04/22 08:08:13;;;;;;;2.05;1.63;;;;;;;13.64;47.17;99460.75;5121433;28;20006;-92
2024/04/22 08:10:39;;;;;;;2.95;1.33;;;;;;;13.77;47.31;99496.34;5103001;27;20050;-89
2024/04/22 08:15:52;;;;;;;3.20;2.60;;;;;;;13.78;49.32;99474.41;5193875;27;20472;-92
2024/04/22 08:18:21;;;;;;;15.45;9.63;;;;;;;13.95;49.07;99474.75;5127170;27;20005;-95
2024/04/22 08:20:47;;;;;;;4.13;1.70;;;;;;;14.04;46.87;99483.03;5110244;27;19997;-91
2024/04/22 08:23:18;;;;;;;9.48;6.75;;;;;;;14.19;46.31;99468.50;5100673;27;20011;-95
2024/04/22 08:26:17;;;;;;;;;;;;;;;;;;;;;
2024/04/22 08:29:09;;;;;;;3.25;1.48;;;;;;;14.37;44.34;99479.66;5117579;27;19997;-93
2024/04/22 08:53:48;;;;;;;13.93;8.45;;;;;;;14.68;43.40;99474.66;5112360;27;20018;-95
2024/04/22 08:56:54;;;;;;;1.60;1.30;;;;;;;14.57;44.73;99498.41;5023282;28;20003;-93
2024/04/22 09:02:57;;;;;;;1.38;1.20;;;;;;;14.46;43.88;99489.53;5027423;28;20008;-93
2024/04/22 09:05:29;;;;;;;1.20;1.03;;;;;;;14.46;44.07;99492.25;4984114;28;19999;-96
2024/04/22 09:08:24;;;;;;;;;;;;;;;14.64;44.15;99503.44;4986938;28;20269;-96
2024/04/22 09:11:34;;;;;;;2.50;2.20;;;;;;;14.50;45.48;99506.03;5000538;28;19939;-96
2024/04/22 09:14:10;;;;;;;1.75;1.50;;;;;;;14.67;43.59;99479.28;4983496;28;20065;-93
2024/04/22 09:16:36;;;;;;;1.90;1.27;;;;;;;14.82;42.71;99489.09;5010510;28;20018;-92
2024/04/22 09:19:11;;;;;;;1.63;1.40;;;;;;;14.95;43.74;99479.41;4979013;28;20024;-92
2024/04/22 09:21:37;;;;;;;1.48;1.20;;;;;;;15.14;42.43;99492.94;5066915;27;20010;-94
2024/04/22 09:24:22;;;;;;;1.60;1.10;;;;;;;14.94;42.20;99473.19;5077959;27;20004;-92
2024/04/22 09:26:51;;;;;;;1.25;1.00;;;;;;;14.90;41.72;99496.56;5103825;27;20009;-93
2024/04/22 09:29:48;;;;;;;;;;;;;;;;;;;;;
2024/04/22 09:32:17;;;;;;;1.27;1.10;;;;;;;14.92;42.49;99483.53;5133618;27;20001;-92
2024/04/22 09:34:54;;;;;;;1.42;1.00;;;;;;;14.95;42.50;99487.56;5100381;27;19993;-94
2024/04/22 09:37:25;;;;;;;1.83;1.35;;;;;;;15.09;42.32;99490.31;5051086;27;20016;-95
2024/04/22 09:40:03;;;;;;;2.20;1.40;;;;;;;15.27;43.07;99499.50;5074830;27;20009;-94
2024/04/22 09:42:54;;;;;;;2.33;1.40;;;;;;;15.17;42.72;99484.22;5082973;27;20321;-94
2024/04/22 09:45:54;;;;;;;1.60;1.10;;;;;;;15.38;41.92;99483.88;5103678;27;20013;-95
2024/04/22 09:48:45;;;;;;;2.58;1.13;;;;;;;15.49;41.18;99510.53;5107703;27;20317;-93
2024/04/22 09:52:22;;;;;;;;;;;;;;;;;;;;;
2024/04/22 09:55:19;;;;;;;;;;;;;;;;;;;;;
2024/04/22 09:58:15;;;;;;;1.25;1.00;;;;;;;15.85;41.65;99484.69;4884531;29;20017;-94
2024/04/22 10:00:43;;;;;;;1.38;1.10;;;;;;;15.96;42.29;99486.13;4877279;29;20015;-92
2024/04/22 10:03:13;;;;;;;1.42;1.00;;;;;;;16.05;41.12;99486.22;4860152;29;20004;-91
2024/04/22 10:05:45;;;;;;;3.00;1.30;;;;;;;15.94;41.00;99480.97;4887179;29;20035;-93
2024/04/22 10:08:25;;;;;;;;;;;;;;;;;;;;;
2024/04/22 10:11:36;;;;;;;3.45;1.58;;;;;;;15.81;41.92;99489.91;4970059;28;20450;-93
2024/04/22 10:14:49;;;;;;;1.20;1.00;;;;;;;15.75;41.73;99477.56;5037382;28;20000;-96
2024/04/22 10:17:46;;;;;;;;;;;;;;;16.03;42.71;99510.97;5038708;28;20010;-94
2024/04/22 10:20:38;;;;;;;1.35;1.00;;;;;;;15.85;41.19;99506.41;4977197;28;19939;-96
2024/04/22 10:37:46;;;;;;;;;;;;;;;;;;;;;
2024/04/22 10:40:25;;;;;;;1.50;1.20;;;;;;;15.49;41.94;99496.97;5076189;28;20002;-95
2024/04/22 10:46:53;;;;;;;;;;;;;;;;;;;;;
2024/04/22 11:02:37;;;;;;;1.60;1.10;;;;;;;15.56;40.66;99486.56;4959652;28;20071;-94
2024/04/22 11:05:33;;;;;;;1.35;1.05;;;;;;;15.54;41.89;99486.03;4915378;28;20002;-96
2024/04/22 11:08:12;;;;;;;1.58;1.20;;;;;;;15.63;41.89;99497.00;5058719;28;20350;-95
2024/04/22 11:35:21;;;;;;;;;;;;;;;;;;;;;
2024/04/22 11:38:29;;;;;;;;;;;;;;;;;;;;;
2024/04/22 11:42:07;;;;;;;;;;;;;;;;;;;;;
2024/04/22 11:44:55;;;;;;;1.73;1.30;;;;;;;15.78;41.46;99481.59;4833360;29;20153;-94
2024/04/22 11:50:36;;;;;;;1.88;1.58;;;;;;;16.00;40.88;99506.13;5017003;28;20079;-92
2024/04/22 11:53:04;;;;;;;1.67;1.23;;;;;;;16.13;40.51;99502.59;5014687;28;20018;-91
2024/04/22 11:56:29;;;;;;;;;;;;;;;;;;;;;
2024/04/22 12:07:09;;;;;;;1.63;1.50;;;;;;;16.13;42.26;99480.88;4997387;28;20023;-96
2024/04/22 12:16:52;;;;;;;2.53;1.75;;;;;;;16.87;41.96;99482.59;5127203;27;19998;-96
2024/04/22 12:26:03;;;;;;;;;;;;;;;;;;;;;
2024/04/22 12:29:10;;;;;;;;;;;;;;;;;;;;;
2024/04/22 12:32:06;;;;;;;1.80;1.42;;;;;;;17.56;39.92;99484.97;5104318;28;20353;-95
2024/04/22 12:34:35;;;;;;;1.75;1.30;;;;;;;17.42;39.56;99475.28;5093223;28;20017;-96
2024/04/22 12:37:22;;;;;;;1.58;1.20;;;;;;;17.35;39.53;99479.25;5052115;28;20005;-95
2024/04/22 12:40:50;;;;;;;;;;;;;;;;;;;;;
2024/04/22 12:43:24;;;;;;;1.25;1.10;;;;;;;17.15;40.07;99475.09;5076292;28;20314;-96
2024/04/22 12:46:07;;;;;;;1.50;1.10;;;;;;;17.26;40.25;99480.28;5041114;28;20435;-95
2024/04/22 12:52:20;;;;;;;;;;;;;;;;;;;;;
2024/04/22 12:54:43;;;;;;;2.03;1.38;;;;;;;17.30;40.10;99497.63;5063685;28;20439;-95
2024/04/22 12:57:22;;;;;;;1.95;1.30;;;;;;;17.32;40.13;99498.91;5046202;28;19998;-96
2024/04/22 13:00:19;;;;;;;2.65;2.03;;;;;;;17.16;40.13;99474.00;5073981;28;20014;-94
2024/04/22 13:03:27;;;;;;;;;;;;;;;;;;;;;
2024/04/22 13:06:06;;;;;;;3.63;1.55;;;;;;;17.07;39.82;99456.81;5036654;28;20147;-94
2024/04/22 13:08:40;;;;;;;4.63;2.58;;;;;;;17.37;40.32;99474.28;5011538;28;20216;-93
2024/04/22 13:11:38;;;;;;;1.52;1.30;;;;;;;17.36;39.32;99461.00;4982647;28;20008;-93
2024/04/22 13:14:09;;;;;;;3.30;1.40;;;;;;;17.54;39.03;99484.47;5033149;27;20492;-94
2024/04/22 13:16:37;;;;;;;4.53;1.50;;;;;;;17.53;39.03;99466.53;5019070;28;19995;-92
2024/04/22 13:19:03;;;;;;;3.40;1.83;;;;;;;17.54;38.24;99478.22;5042460;28;20083;-94
2024/04/22 13:21:34;;;;;;;1.80;1.40;;;;;;;17.37;38.75;99462.63;5041639;28;20010;-94
2024/04/22 13:38:02;;;;;;;2.85;1.27;;;;;;;17.69;38.23;99486.00;4892375;29;20054;-95
2024/04/22 13:44:04;;;;;;;1.77;1.40;;;;;;;17.98;37.75;99471.88;4943377;29;20032;-95
2024/04/22 14:50:56;;;;;;;1.60;1.33;;;;;;;21.86;30.41;99525.28;4249859;22;20450;-95
2024/04/22 15:11:49;;;;;;;2.73;1.60;;;;;;;20.96;31.38;99533.06;5127178;27;20006;-93
2024/04/22 15:29:11;;;;;;;2.33;1.23;;;;;;;19.43;33.36;99525.66;5202706;22;20033;-95
2024/04/22 15:31:43;;;;;;;2.25;1.63;;;;;;;19.12;35.05;99521.19;5131291;27;20379;-94
2024/04/22 15:34:18;;;;;;;1.88;1.45;;;;;;;19.05;35.27;99526.31;5076624;27;20031;-94
2024/04/22 15:36:50;;;;;;;2.05;1.50;;;;;;;19.39;34.48;99520.81;5077330;27;20005;-94
2024/04/22 15:39:29;;;;;;;;;;;;;;;18.90;35.56;99543.97;5045939;28;19997;-94
2024/04/22 15:42:00;;;;;;;1.70;1.50;;;;;;;18.52;35.83;99520.78;5069398;28;19957;-95
2024/04/22 15:44:43;;;;;;;1.77;1.40;;;;;;;18.28;36.36;99529.38;5071286;27;20028;-93
2024/04/22 15:47:29;;;;;;;1.80;1.50;;;;;;;18.13;36.35;99529.78;5104103;27;20009;-94
2024/04/22 15:50:05;;;;;;;3.45;1.52;;;;;;;17.88;37.22;99523.13;5081245;27;20022;-93
2024/04/22 15:52:37;;;;;;;2.35;1.77;;;;;;;17.66;38.04;99510.31;5100894;27;20017;-93
2024/04/22 15:55:11;;;;;;;;;;;;;;;17.68;38.73;99544.31;5087567;27;20011;-91
2024/04/22 15:57:48;;;;;;;2.80;1.60;;;;;;;17.55;38.81;99539.72;5105924;28;19941;-93
2024/04/22 16:00:20;;;;;;;4.35;2.30;;;;;;;17.32;39.07;99501.63;5068329;28;19996;-94
2024/04/22 16:02:47;;;;;;;;;;;;;;;17.28;38.93;99538.75;5071333;28;20057;-93
2024/04/22 16:05:16;;;;;;;2.13;1.45;;;;;;;17.15;39.39;99526.81;5110778;27;20352;-91
2024/04/22 16:07:44;;;;;;;2.85;1.80;;;;;;;16.84;40.55;99515.03;5073145;27;20009;-94
2024/04/22 16:10:11;;;;;;;2.38;1.73;;;;;;;16.83;40.34;99507.97;5073672;27;20021;-94
2024/04/22 16:12:48;;;;;;;2.40;1.98;;;;;;;16.82;40.60;99522.69;5073307;27;20008;-93
2024/04/22 16:15:34;;;;;;;3.00;2.33;;;;;;;16.73;40.58;99522.59;5100925;27;19989;-93
2024/04/22 16:18:02;;;;;;;4.72;1.98;;;;;;;16.63;40.51;99525.53;5124625;27;19998;-92
2024/04/22 16:20:41;;;;;;;;;;;;;;;;;;;;;
2024/04/22 16:23:10;;;;;;;3.67;1.50;;;;;;;16.48;40.65;99518.50;5103526;27;20001;-93
2024/04/22 16:25:38;;;;;;;4.13;1.80;;;;;;;16.39;41.03;99526.53;5075924;27;20001;-94
2024/04/22 16:28:08;;;;;;;4.68;1.85;;;;;;;16.25;41.18;99523.03;5111987;27;19998;-93
2024/04/22 16:30:55;;;;;;;3.03;2.20;;;;;;;16.20;41.76;99518.50;5102662;27;20005;-93
2024/04/22 16:33:22;;;;;;;3.00;1.70;;;;;;;16.26;41.74;99543.66;5125380;27;19997;-94
2024/04/22 16:35:48;;;;;;;2.30;1.60;;;;;;;16.01;41.93;99521.31;5074874;27;20317;-94
2024/04/22 16:38:18;;;;;;;2.80;2.00;;;;;;;15.91;42.63;99530.44;5076254;27;20021;-94
2024/04/22 16:40:48;;;;;;;3.00;1.92;;;;;;;15.95;41.72;99545.03;5077226;27;20101;-92
2024/04/22 16:43:14;;;;;;;2.13;1.65;;;;;;;15.84;42.66;99554.50;5078148;27;20033;-95
2024/04/22 16:45:41;;;;;;;3.00;2.10;;;;;;;15.80;42.72;99561.63;5077884;27;20005;-94
2024/04/22 16:48:07;;;;;;;3.00;2.17;;;;;;;15.69;43.28;99552.03;5079283;27;19989;-94
2024/04/22 16:50:32;;;;;;;3.28;2.15;;;;;;;15.80;43.50;99567.06;5078411;27;20033;-94
2024/04/22 16:53:00;;;;;;;2.55;2.20;;;;;;;15.73;43.30;99563.94;5075681;27;20016;-95
2024/04/22 16:55:26;;;;;;;3.90;1.65;;;;;;;15.67;43.46;99565.88;5075209;27;20017;-92
2024/04/22 16:57:52;;;;;;;4.80;2.13;;;;;;;15.59;43.34;99560.34;5075323;27;20013;-92
2024/04/22 17:00:17;;;;;;;10.88;2.80;;;;;;;15.56;44.67;99584.25;5074994;27;20001;-95
2024/04/22 17:02:46;;;;;;;4.22;2.25;;;;;;;15.40;44.47;99554.91;5077334;27;20054;-94
2024/04/22 17:05:14;;;;;;;3.65;2.00;;;;;;;15.53;44.38;99576.69;5076296;27;20000;-93
2024/04/22 17:07:40;;;;;;;6.40;2.30;;;;;;;15.36;44.95;99554.72;5076768;27;20004;-94
2024/04/22 17:10:06;;;;;;;3.88;2.60;;;;;;;15.39;44.89;99564.19;5075150;27;20006;-96
2024/04/22 17:12:32;;;;;;;3.88;2.58;;;;;;;15.44;45.38;99580.38;5074892;27;20012;-93
2024/04/22 17:14:58;;;;;;;5.03;2.97;;;;;;;15.28;45.95;99566.25;5075823;27;20099;-93